sensor_id;sensor_type;location;lat;lon;timestamp;temperature;humidity
3842;DHT22;1936;47.074;15.336;2023-08-20T00:00:21;21.90;99.90
3842;DHT22;1936;47.074;15.336;2023-08-20T00:02:25;22.00;99.90
3842;DHT22;1936;47.074;15.336;2023-08-20T00:04:34;22.10;99.90
3842;DHT22;1936;47.074;15.336;2023-08-20T00:06:38;22.10;99.90
3842;DHT22;1936;47.074;15.336;2023-08-20T00:08:41;22.20;99.90
3842;DHT22;1936;47.074;15.336;2023-08-20T00:10:43;22.20;99.90
3842;DHT22;1936;47.074;15.336;2023-08-20T00:12:47;22.20;99.90
3842;DHT22;1936;47.074;15.336;2023-08-20T00:14:55;22.20;99.90
3842;DHT22;1936;47.074;15.336;2023-08-20T00:17:01;22.20;99.90
3842;DHT22;1936;47.074;15.336;2023-08-20T00:19:06;22.20;99.90
3842;DHT22;1936;47.074;15.336;2023-08-20T00:21:14;22.20;99.90
3842;DHT22;1936;47.074;15.336;2023-08-20T00:23:19;22.20;99.90
3842;DHT22;1936;47.074;15.336;2023-08-20T00:25:23;22.10;99.90
3842;DHT22;1936;47.074;15.336;2023-08-20T00:27:25;22.20;99.90
3842;DHT22;1936;47.074;15.336;2023-08-20T00:29:29;22.10;99.90
3842;DHT22;1936;47.074;15.336;2023-08-20T00:31:32;22.20;99.90
3842;DHT22;1936;47.074;15.336;2023-08-20T00:33:35;22.20;99.90
3842;DHT22;1936;47.074;15.336;2023-08-20T00:35:39;22.10;99.90
3842;DHT22;1936;47.074;15.336;2023-08-20T00:37:43;22.20;99.90
3842;DHT22;1936;47.074;15.336;2023-08-20T00:39:47;22.20;99.90
3842;DHT22;1936;47.074;15.336;2023-08-20T00:41:51;22.10;99.90
3842;DHT22;1936;47.074;15.336;2023-08-20T00:43:54;22.00;99.90
3842;DHT22;1936;47.074;15.336;2023-08-20T00:45:59;21.80;99.90
3842;DHT22;1936;47.074;15.336;2023-08-20T00:48:03;21.80;99.90
3842;DHT22;1936;47.074;15.336;2023-08-20T00:50:08;21.90;99.90
3842;DHT22;1936;47.074;15.336;2023-08-20T00:52:14;21.70;99.90
3842;DHT22;1936;47.074;15.336;2023-08-20T00:54:20;21.60;99.90
3842;DHT22;1936;47.074;15.336;2023-08-20T00:56:23;21.80;99.90
3842;DHT22;1936;47.074;15.336;2023-08-20T00:58:27;21.70;99.90
3842;DHT22;1936;47.074;15.336;2023-08-20T01:00:30;21.70;99.90
3842;DHT22;1936;47.074;15.336;2023-08-20T01:02:34;21.70;99.90
3842;DHT22;1936;47.074;15.336;2023-08-20T01:04:36;21.70;99.90
3842;DHT22;1936;47.074;15.336;2023-08-20T01:06:46;21.80;99.90
3842;DHT22;1936;47.074;15.336;2023-08-20T01:08:58;22.00;99.90
3842;DHT22;1936;47.074;15.336;2023-08-20T01:11:12;21.90;99.90
3842;DHT22;1936;47.074;15.336;2023-08-20T01:13:18;22.10;99.90
3842;DHT22;1936;47.074;15.336;2023-08-20T01:15:22;22.10;99.90
3842;DHT22;1936;47.074;15.336;2023-08-20T01:17:25;22.00;99.90
3842;DHT22;1936;47.074;15.336;2023-08-20T01:19:28;21.90;99.90
3842;DHT22;1936;47.074;15.336;2023-08-20T01:21:38;21.80;99.90
3842;DHT22;1936;47.074;15.336;2023-08-20T01:24:01;21.70;99.90
3842;DHT22;1936;47.074;15.336;2023-08-20T01:26:40;21.70;99.90
3842;DHT22;1936;47.074;15.336;2023-08-20T01:28:48;21.80;99.90
3842;DHT22;1936;47.074;15.336;2023-08-20T01:30:53;21.80;99.90
3842;DHT22;1936;47.074;15.336;2023-08-20T01:32:58;21.70;99.90
3842;DHT22;1936;47.074;15.336;2023-08-20T01:35:00;21.80;99.90
3842;DHT22;1936;47.074;15.336;2023-08-20T01:37:04;21.80;99.90
3842;DHT22;1936;47.074;15.336;2023-08-20T01:39:07;21.80;99.90
3842;DHT22;1936;47.074;15.336;2023-08-20T01:41:11;21.80;99.90
3842;DHT22;1936;47.074;15.336;2023-08-20T01:43:15;21.70;99.90
3842;DHT22;1936;47.074;15.336;2023-08-20T01:45:20;21.70;99.90
3842;DHT22;1936;47.074;15.336;2023-08-20T01:47:24;21.70;99.90
3842;DHT22;1936;47.074;15.336;2023-08-20T01:49:27;21.60;99.90
3842;DHT22;1936;47.074;15.336;2023-08-20T01:51:30;21.50;99.90
3842;DHT22;1936;47.074;15.336;2023-08-20T01:53:34;21.60;99.90
3842;DHT22;1936;47.074;15.336;2023-08-20T01:55:37;21.50;99.90
3842;DHT22;1936;47.074;15.336;2023-08-20T01:57:41;21.50;99.90
3842;DHT22;1936;47.074;15.336;2023-08-20T01:59:44;21.40;99.90
3842;DHT22;1936;47.074;15.336;2023-08-20T02:01:49;21.30;99.90
3842;DHT22;1936;47.074;15.336;2023-08-20T02:03:52;21.20;99.90
3842;DHT22;1936;47.074;15.336;2023-08-20T02:05:56;21.20;99.90
3842;DHT22;1936;47.074;15.336;2023-08-20T02:07:59;21.20;99.90
3842;DHT22;1936;47.074;15.336;2023-08-20T02:10:03;21.30;99.90
3842;DHT22;1936;47.074;15.336;2023-08-20T02:12:07;21.30;99.90
3842;DHT22;1936;47.074;15.336;2023-08-20T02:14:10;21.40;99.90
3842;DHT22;1936;47.074;15.336;2023-08-20T02:16:13;21.50;99.90
3842;DHT22;1936;47.074;15.336;2023-08-20T02:18:19;21.60;99.90
3842;DHT22;1936;47.074;15.336;2023-08-20T02:20:23;21.60;99.90
3842;DHT22;1936;47.074;15.336;2023-08-20T02:22:26;21.50;99.90
3842;DHT22;1936;47.074;15.336;2023-08-20T02:24:31;21.60;99.90
3842;DHT22;1936;47.074;15.336;2023-08-20T02:26:34;21.60;99.90
3842;DHT22;1936;47.074;15.336;2023-08-20T02:28:38;21.50;99.90
3842;DHT22;1936;47.074;15.336;2023-08-20T02:30:41;21.60;99.90
3842;DHT22;1936;47.074;15.336;2023-08-20T02:32:45;21.70;99.90
3842;DHT22;1936;47.074;15.336;2023-08-20T02:34:51;21.80;99.90
3842;DHT22;1936;47.074;15.336;2023-08-20T02:36:55;21.60;99.90
3842;DHT22;1936;47.074;15.336;2023-08-20T02:38:58;21.60;99.90
3842;DHT22;1936;47.074;15.336;2023-08-20T02:41:02;21.50;99.90
3842;DHT22;1936;47.074;15.336;2023-08-20T02:43:05;21.50;99.90
3842;DHT22;1936;47.074;15.336;2023-08-20T02:45:09;21.40;99.90
3842;DHT22;1936;47.074;15.336;2023-08-20T02:47:11;21.50;99.90
3842;DHT22;1936;47.074;15.336;2023-08-20T02:49:14;21.50;99.90
3842;DHT22;1936;47.074;15.336;2023-08-20T02:51:18;21.40;99.90
3842;DHT22;1936;47.074;15.336;2023-08-20T02:53:22;21.40;99.90
3842;DHT22;1936;47.074;15.336;2023-08-20T02:55:25;21.30;99.90
3842;DHT22;1936;47.074;15.336;2023-08-20T02:57:28;21.30;99.90
3842;DHT22;1936;47.074;15.336;2023-08-20T02:59:31;21.30;99.90
3842;DHT22;1936;47.074;15.336;2023-08-20T03:01:34;21.10;99.90
3842;DHT22;1936;47.074;15.336;2023-08-20T03:03:37;21.10;99.90
3842;DHT22;1936;47.074;15.336;2023-08-20T03:05:43;21.10;99.90
3842;DHT22;1936;47.074;15.336;2023-08-20T03:07:48;21.00;99.90
3842;DHT22;1936;47.074;15.336;2023-08-20T03:09:52;21.00;99.90
3842;DHT22;1936;47.074;15.336;2023-08-20T03:11:55;21.10;99.90
3842;DHT22;1936;47.074;15.336;2023-08-20T03:13:58;21.20;99.90
3842;DHT22;1936;47.074;15.336;2023-08-20T03:16:02;21.10;99.90
3842;DHT22;1936;47.074;15.336;2023-08-20T03:18:06;21.00;99.90
3842;DHT22;1936;47.074;15.336;2023-08-20T03:20:10;21.20;99.90
3842;DHT22;1936;47.074;15.336;2023-08-20T03:22:14;21.20;99.90
3842;DHT22;1936;47.074;15.336;2023-08-20T03:24:18;21.30;99.90
3842;DHT22;1936;47.074;15.336;2023-08-20T03:26:22;21.50;99.90
3842;DHT22;1936;47.074;15.336;2023-08-20T03:28:25;21.50;99.90
3842;DHT22;1936;47.074;15.336;2023-08-20T03:30:28;21.60;99.90
3842;DHT22;1936;47.074;15.336;2023-08-20T03:32:33;21.50;99.90
3842;DHT22;1936;47.074;15.336;2023-08-20T03:34:36;21.50;99.90
3842;DHT22;1936;47.074;15.336;2023-08-20T03:36:40;21.50;99.90
3842;DHT22;1936;47.074;15.336;2023-08-20T03:38:43;21.50;99.90
3842;DHT22;1936;47.074;15.336;2023-08-20T03:40:49;21.60;99.90
3842;DHT22;1936;47.074;15.336;2023-08-20T03:42:53;21.60;99.90
3842;DHT22;1936;47.074;15.336;2023-08-20T03:44:56;21.60;99.90
3842;DHT22;1936;47.074;15.336;2023-08-20T03:47:00;21.60;99.90
3842;DHT22;1936;47.074;15.336;2023-08-20T03:49:03;21.40;99.90
3842;DHT22;1936;47.074;15.336;2023-08-20T03:51:07;21.40;99.90
3842;DHT22;1936;47.074;15.336;2023-08-20T03:53:10;21.30;99.90
3842;DHT22;1936;47.074;15.336;2023-08-20T03:55:13;21.20;99.90
3842;DHT22;1936;47.074;15.336;2023-08-20T03:57:18;21.20;99.90
3842;DHT22;1936;47.074;15.336;2023-08-20T03:59:22;21.30;99.90
3842;DHT22;1936;47.074;15.336;2023-08-20T04:01:24;21.20;99.90
3842;DHT22;1936;47.074;15.336;2023-08-20T04:03:27;21.30;99.90
3842;DHT22;1936;47.074;15.336;2023-08-20T04:05:36;21.40;99.90
3842;DHT22;1936;47.074;15.336;2023-08-20T04:07:39;21.40;99.90
3842;DHT22;1936;47.074;15.336;2023-08-20T04:09:42;21.30;99.90
3842;DHT22;1936;47.074;15.336;2023-08-20T04:11:45;21.40;99.90
3842;DHT22;1936;47.074;15.336;2023-08-20T04:13:50;21.40;99.90
3842;DHT22;1936;47.074;15.336;2023-08-20T04:15:53;21.40;99.90
3842;DHT22;1936;47.074;15.336;2023-08-20T04:17:57;21.50;99.90
3842;DHT22;1936;47.074;15.336;2023-08-20T04:20:00;21.60;99.90
3842;DHT22;1936;47.074;15.336;2023-08-20T04:22:05;21.70;99.90
3842;DHT22;1936;47.074;15.336;2023-08-20T04:24:09;21.60;99.90
3842;DHT22;1936;47.074;15.336;2023-08-20T04:26:11;21.60;99.90
3842;DHT22;1936;47.074;15.336;2023-08-20T04:28:15;21.60;99.90
3842;DHT22;1936;47.074;15.336;2023-08-20T04:30:19;21.80;99.90
3842;DHT22;1936;47.074;15.336;2023-08-20T04:32:23;21.80;99.90
3842;DHT22;1936;47.074;15.336;2023-08-20T04:34:26;21.80;99.90
3842;DHT22;1936;47.074;15.336;2023-08-20T04:36:29;21.50;99.90
3842;DHT22;1936;47.074;15.336;2023-08-20T04:38:33;21.40;99.90
3842;DHT22;1936;47.074;15.336;2023-08-20T04:40:36;21.50;99.90
3842;DHT22;1936;47.074;15.336;2023-08-20T04:42:39;21.40;99.90
3842;DHT22;1936;47.074;15.336;2023-08-20T04:44:43;21.50;99.90
3842;DHT22;1936;47.074;15.336;2023-08-20T04:46:46;21.50;99.90
3842;DHT22;1936;47.074;15.336;2023-08-20T04:48:50;21.50;99.90
3842;DHT22;1936;47.074;15.336;2023-08-20T04:50:53;21.60;99.90
3842;DHT22;1936;47.074;15.336;2023-08-20T04:52:56;21.50;99.90
3842;DHT22;1936;47.074;15.336;2023-08-20T04:55:02;21.60;99.90
3842;DHT22;1936;47.074;15.336;2023-08-20T04:57:05;21.60;99.90
3842;DHT22;1936;47.074;15.336;2023-08-20T04:59:08;21.60;99.90
3842;DHT22;1936;47.074;15.336;2023-08-20T05:01:12;21.50;99.90
3842;DHT22;1936;47.074;15.336;2023-08-20T05:03:17;21.40;99.90
3842;DHT22;1936;47.074;15.336;2023-08-20T05:05:20;21.50;99.90
3842;DHT22;1936;47.074;15.336;2023-08-20T05:07:23;21.70;99.90
3842;DHT22;1936;47.074;15.336;2023-08-20T05:09:27;21.70;99.90
3842;DHT22;1936;47.074;15.336;2023-08-20T05:11:30;21.80;99.90
3842;DHT22;1936;47.074;15.336;2023-08-20T05:13:34;21.90;99.90
3842;DHT22;1936;47.074;15.336;2023-08-20T05:15:38;21.90;99.90
3842;DHT22;1936;47.074;15.336;2023-08-20T05:17:41;22.10;99.90
3842;DHT22;1936;47.074;15.336;2023-08-20T05:19:46;22.20;99.90
3842;DHT22;1936;47.074;15.336;2023-08-20T05:21:50;22.40;99.90
3842;DHT22;1936;47.074;15.336;2023-08-20T05:23:54;22.30;99.90
3842;DHT22;1936;47.074;15.336;2023-08-20T05:25:58;22.30;99.90
3842;DHT22;1936;47.074;15.336;2023-08-20T05:28:01;22.30;99.90
3842;DHT22;1936;47.074;15.336;2023-08-20T05:30:05;22.60;99.90
3842;DHT22;1936;47.074;15.336;2023-08-20T05:32:10;22.90;99.90
3842;DHT22;1936;47.074;15.336;2023-08-20T05:34:13;23.10;99.20
3842;DHT22;1936;47.074;15.336;2023-08-20T05:36:18;23.10;99.20
3842;DHT22;1936;47.074;15.336;2023-08-20T05:38:21;23.20;99.20
3842;DHT22;1936;47.074;15.336;2023-08-20T05:40:24;23.50;99.30
3842;DHT22;1936;47.074;15.336;2023-08-20T05:42:28;23.70;98.40
3842;DHT22;1936;47.074;15.336;2023-08-20T05:44:31;23.60;98.60
3842;DHT22;1936;47.074;15.336;2023-08-20T05:46:34;23.80;98.10
3842;DHT22;1936;47.074;15.336;2023-08-20T05:48:38;24.40;97.70
3842;DHT22;1936;47.074;15.336;2023-08-20T05:50:41;24.90;96.70
3842;DHT22;1936;47.074;15.336;2023-08-20T05:52:46;25.40;95.20
3842;DHT22;1936;47.074;15.336;2023-08-20T05:54:50;26.10;94.20
3842;DHT22;1936;47.074;15.336;2023-08-20T05:56:53;26.80;93.00
3842;DHT22;1936;47.074;15.336;2023-08-20T05:58:56;27.30;92.00
3842;DHT22;1936;47.074;15.336;2023-08-20T06:00:59;27.40;90.40
3842;DHT22;1936;47.074;15.336;2023-08-20T06:03:03;28.70;89.60
3842;DHT22;1936;47.074;15.336;2023-08-20T06:05:07;30.20;86.00
3842;DHT22;1936;47.074;15.336;2023-08-20T06:07:10;31.00;81.20
3842;DHT22;1936;47.074;15.336;2023-08-20T06:09:15;31.70;80.20
3842;DHT22;1936;47.074;15.336;2023-08-20T06:11:19;32.40;76.90
3842;DHT22;1936;47.074;15.336;2023-08-20T06:13:22;32.40;73.80
3842;DHT22;1936;47.074;15.336;2023-08-20T06:15:26;32.90;72.50
3842;DHT22;1936;47.074;15.336;2023-08-20T06:17:29;31.90;71.90
3842;DHT22;1936;47.074;15.336;2023-08-20T06:19:32;31.10;76.20
3842;DHT22;1936;47.074;15.336;2023-08-20T06:21:37;30.60;74.40
3842;DHT22;1936;47.074;15.336;2023-08-20T06:23:40;30.20;76.10
3842;DHT22;1936;47.074;15.336;2023-08-20T06:25:46;30.20;76.00
3842;DHT22;1936;47.074;15.336;2023-08-20T06:27:50;29.80;76.50
3842;DHT22;1936;47.074;15.336;2023-08-20T06:29:53;30.20;80.20
3842;DHT22;1936;47.074;15.336;2023-08-20T06:31:57;31.20;76.90
3842;DHT22;1936;47.074;15.336;2023-08-20T06:34:00;32.50;74.20
3842;DHT22;1936;47.074;15.336;2023-08-20T06:36:03;33.70;69.70
3842;DHT22;1936;47.074;15.336;2023-08-20T06:38:06;34.60;68.10
3842;DHT22;1936;47.074;15.336;2023-08-20T06:40:10;35.00;66.90
3842;DHT22;1936;47.074;15.336;2023-08-20T06:42:17;35.40;66.00
3842;DHT22;1936;47.074;15.336;2023-08-20T06:44:20;36.00;62.70
3842;DHT22;1936;47.074;15.336;2023-08-20T06:46:23;36.80;61.10
3842;DHT22;1936;47.074;15.336;2023-08-20T06:48:27;37.00;60.60
3842;DHT22;1936;47.074;15.336;2023-08-20T06:50:30;37.20;61.30
3842;DHT22;1936;47.074;15.336;2023-08-20T06:52:34;38.10;61.40
3842;DHT22;1936;47.074;15.336;2023-08-20T06:54:38;38.20;57.50
3842;DHT22;1936;47.074;15.336;2023-08-20T06:56:41;37.80;56.40
3842;DHT22;1936;47.074;15.336;2023-08-20T06:58:46;39.00;58.20
3842;DHT22;1936;47.074;15.336;2023-08-20T07:00:49;39.40;57.30
3842;DHT22;1936;47.074;15.336;2023-08-20T07:02:53;39.40;53.30
3842;DHT22;1936;47.074;15.336;2023-08-20T07:04:56;38.80;56.90
3842;DHT22;1936;47.074;15.336;2023-08-20T07:07:00;38.40;55.20
3842;DHT22;1936;47.074;15.336;2023-08-20T07:09:03;38.00;56.90
3842;DHT22;1936;47.074;15.336;2023-08-20T07:11:07;38.90;56.00
3842;DHT22;1936;47.074;15.336;2023-08-20T07:13:11;39.70;56.40
3842;DHT22;1936;47.074;15.336;2023-08-20T07:15:16;39.80;54.90
3842;DHT22;1936;47.074;15.336;2023-08-20T07:17:19;40.00;54.00
3842;DHT22;1936;47.074;15.336;2023-08-20T07:19:23;40.30;56.30
3842;DHT22;1936;47.074;15.336;2023-08-20T07:21:26;41.30;54.80
3842;DHT22;1936;47.074;15.336;2023-08-20T07:23:29;41.70;52.10
3842;DHT22;1936;47.074;15.336;2023-08-20T07:25:32;40.80;51.30
3842;DHT22;1936;47.074;15.336;2023-08-20T07:27:36;40.40;54.60
3842;DHT22;1936;47.074;15.336;2023-08-20T07:29:41;40.30;53.70
3842;DHT22;1936;47.074;15.336;2023-08-20T07:31:45;40.50;53.70
3842;DHT22;1936;47.074;15.336;2023-08-20T07:33:48;41.40;53.60
3842;DHT22;1936;47.074;15.336;2023-08-20T07:35:52;41.80;55.20
3842;DHT22;1936;47.074;15.336;2023-08-20T07:37:57;42.60;51.00
3842;DHT22;1936;47.074;15.336;2023-08-20T07:40:00;43.10;52.50
3842;DHT22;1936;47.074;15.336;2023-08-20T07:42:04;43.60;52.70
3842;DHT22;1936;47.074;15.336;2023-08-20T07:44:08;42.30;51.00
3842;DHT22;1936;47.074;15.336;2023-08-20T07:46:11;41.10;52.30
3842;DHT22;1936;47.074;15.336;2023-08-20T07:48:16;42.10;53.70
3842;DHT22;1936;47.074;15.336;2023-08-20T07:50:20;42.50;55.30
3842;DHT22;1936;47.074;15.336;2023-08-20T07:52:23;43.30;53.70
3842;DHT22;1936;47.074;15.336;2023-08-20T07:54:26;43.60;51.40
3842;DHT22;1936;47.074;15.336;2023-08-20T07:56:31;43.30;51.60
3842;DHT22;1936;47.074;15.336;2023-08-20T07:58:34;44.00;50.30
3842;DHT22;1936;47.074;15.336;2023-08-20T08:00:37;44.00;50.00
3842;DHT22;1936;47.074;15.336;2023-08-20T08:02:40;44.00;50.90
3842;DHT22;1936;47.074;15.336;2023-08-20T08:04:45;45.00;49.10
3842;DHT22;1936;47.074;15.336;2023-08-20T08:06:49;45.00;48.60
3842;DHT22;1936;47.074;15.336;2023-08-20T08:08:52;45.10;48.50
3842;DHT22;1936;47.074;15.336;2023-08-20T08:10:55;45.20;50.00
3842;DHT22;1936;47.074;15.336;2023-08-20T08:21:20;44.70;62.10
3842;DHT22;1936;47.074;15.336;2023-08-20T08:52:45;45.70;57.30
3842;DHT22;1936;47.074;15.336;2023-08-20T08:54:51;46.70;57.00
3842;DHT22;1936;47.074;15.336;2023-08-20T08:56:55;46.40;58.00
3842;DHT22;1936;47.074;15.336;2023-08-20T08:58:59;46.80;58.90
